createdAt,value
2018-05-15T00:00:11.854Z,7.63
2018-05-15T00:02:40.849Z,8.13
2018-05-15T00:05:09.839Z,8.70
2018-05-15T00:07:38.826Z,8.77
2018-05-15T00:10:07.803Z,8.17
2018-05-15T00:12:36.811Z,8.23
2018-05-15T00:15:05.782Z,8.03
2018-05-15T00:17:34.744Z,8.40
2018-05-15T00:20:03.725Z,8.93
2018-05-15T00:22:32.678Z,7.80
2018-05-15T00:25:01.667Z,8.00
2018-05-15T00:27:30.622Z,8.97
2018-05-15T00:29:59.630Z,9.13
2018-05-15T00:32:28.592Z,8.07
2018-05-15T00:34:57.570Z,8.50
2018-05-15T00:37:26.547Z,9.03
2018-05-15T00:39:55.526Z,8.50
2018-05-15T00:42:24.538Z,9.17
2018-05-15T00:44:53.493Z,9.50
2018-05-15T00:47:22.475Z,8.67
2018-05-15T00:49:51.456Z,9.20
2018-05-15T00:52:20.450Z,10.10
2018-05-15T00:54:49.476Z,9.40
2018-05-15T00:57:18.472Z,9.73
2018-05-15T00:59:47.455Z,9.03
2018-05-15T01:02:16.439Z,9.10
2018-05-15T01:04:45.415Z,9.40
2018-05-15T01:07:14.428Z,9.60
2018-05-15T01:09:43.414Z,8.90
2018-05-15T01:12:12.399Z,9.37
2018-05-15T01:14:41.378Z,8.90
2018-05-15T01:17:10.364Z,8.50
2018-05-15T01:19:39.397Z,8.97
2018-05-15T01:22:08.368Z,9.77
2018-05-15T01:24:37.354Z,9.43
2018-05-15T01:27:06.319Z,9.20
2018-05-15T01:29:35.289Z,9.17
2018-05-15T01:32:04.290Z,8.40
2018-05-15T01:34:33.250Z,9.77
2018-05-15T01:37:02.218Z,9.37
2018-05-15T01:39:31.208Z,9.10
2018-05-15T01:42:00.185Z,8.70
2018-05-15T01:44:29.205Z,9.20
2018-05-15T01:46:58.177Z,8.13
2018-05-15T01:49:27.134Z,8.67
2018-05-15T01:51:56.098Z,9.13
2018-05-15T01:54:25.077Z,9.03
2018-05-15T01:56:54.090Z,9.43
2018-05-15T01:59:23.067Z,8.60
2018-05-15T02:01:52.029Z,8.70
2018-05-15T02:04:20.991Z,10.20
2018-05-15T02:06:49.969Z,9.20
2018-05-15T02:09:18.985Z,10.47
2018-05-15T02:11:47.962Z,9.60
2018-05-15T02:14:16.931Z,9.47
2018-05-15T02:16:45.892Z,10.23
2018-05-15T02:19:14.930Z,9.43
2018-05-15T02:21:43.954Z,9.40
2018-05-15T02:24:12.948Z,10.03
2018-05-15T02:26:41.927Z,9.70
2018-05-15T02:29:10.893Z,9.57
2018-05-15T02:31:39.863Z,9.60
2018-05-15T02:34:08.871Z,9.47
2018-05-15T02:36:37.834Z,9.50
2018-05-15T02:39:06.838Z,9.43
2018-05-15T02:41:35.827Z,9.23
2018-05-15T02:44:04.820Z,9.43
2018-05-15T02:46:33.797Z,9.80
2018-05-15T02:49:02.756Z,10.07
2018-05-15T02:51:31.797Z,9.73
2018-05-15T02:54:00.749Z,10.03
2018-05-15T02:56:29.713Z,10.13
2018-05-15T02:58:58.694Z,11.03
2018-05-15T03:01:27.678Z,10.03
2018-05-15T03:03:56.693Z,10.43
2018-05-15T03:06:25.668Z,9.93
2018-05-15T03:08:54.650Z,10.37
2018-05-15T03:11:23.619Z,10.00
2018-05-15T03:13:52.578Z,10.70
2018-05-15T03:16:21.623Z,10.23
2018-05-15T03:18:50.592Z,9.90
2018-05-15T03:21:19.552Z,11.00
2018-05-15T03:23:48.516Z,10.27
2018-05-15T03:26:17.514Z,10.27
2018-05-15T03:28:46.515Z,10.47
2018-05-15T03:31:15.477Z,10.67
2018-05-15T03:33:44.436Z,10.63
2018-05-15T03:36:13.467Z,9.87
2018-05-15T03:38:42.457Z,10.63
2018-05-15T03:41:11.464Z,11.23
2018-05-15T03:43:40.457Z,11.10
2018-05-15T03:46:09.427Z,10.37
2018-05-15T03:48:38.386Z,10.70
2018-05-15T03:51:07.397Z,10.13
2018-05-15T03:53:36.428Z,11.00
2018-05-15T03:56:05.421Z,10.57
2018-05-15T03:58:34.418Z,10.63
2018-05-15T04:01:09.303Z,10.13
2018-05-15T04:03:54.092Z,10.40
2018-05-15T04:06:28.894Z,10.50
2018-05-15T04:08:57.896Z,10.00
2018-05-15T04:11:26.872Z,10.97
2018-05-15T04:16:31.219Z,10.70
2018-05-15T04:19:00.204Z,11.03
2018-05-15T04:21:29.215Z,10.33
2018-05-15T04:23:58.187Z,10.77
2018-05-15T04:26:27.161Z,10.57
2018-05-15T04:28:56.136Z,11.00
2018-05-15T04:31:25.109Z,11.13
2018-05-15T04:33:54.169Z,10.13
2018-05-15T04:36:23.135Z,11.27
2018-05-15T04:38:52.100Z,10.97
2018-05-15T04:41:21.091Z,10.60
2018-05-15T04:43:50.231Z,10.50
2018-05-15T04:46:19.102Z,11.17
2018-05-15T04:48:48.083Z,11.07
2018-05-15T04:51:17.069Z,10.70
2018-05-15T04:53:46.050Z,12.33
2018-05-15T04:56:15.027Z,12.23
2018-05-15T04:58:44.048Z,9.97
2018-05-15T05:01:13.021Z,11.70
2018-05-15T05:03:41.984Z,11.10
2018-05-15T05:06:10.942Z,11.13
2018-05-15T05:08:39.903Z,11.77
2018-05-15T05:11:08.955Z,10.60
2018-05-15T05:13:37.934Z,11.13
2018-05-15T05:16:06.907Z,11.63
2018-05-15T05:18:35.872Z,11.07
2018-05-15T05:21:04.982Z,11.63
2018-05-15T05:23:34.049Z,10.70
2018-05-15T05:26:03.038Z,10.33
2018-05-15T05:28:32.054Z,10.27
2018-05-15T05:31:01.009Z,9.97
2018-05-15T05:33:29.974Z,10.57
2018-05-15T05:35:58.984Z,9.47
2018-05-15T05:38:27.959Z,9.90
2018-05-15T05:40:56.923Z,8.90
2018-05-15T05:43:25.909Z,9.07
2018-05-15T05:45:54.859Z,8.90
2018-05-15T05:48:23.890Z,9.67
2018-05-15T05:50:52.854Z,8.57
2018-05-15T05:53:21.817Z,9.10
2018-05-15T05:55:50.782Z,8.63
2018-05-15T05:58:19.815Z,9.00
2018-05-15T06:00:48.777Z,8.80
2018-05-15T06:03:17.751Z,8.13
2018-05-15T06:05:46.761Z,7.70
2018-05-15T06:08:15.730Z,7.70
2018-05-15T06:10:44.703Z,9.00
2018-05-15T06:13:13.682Z,8.60
2018-05-15T06:15:42.653Z,7.47
2018-05-15T06:18:11.647Z,7.60
2018-05-15T06:20:40.637Z,8.53
2018-05-15T06:23:09.617Z,7.90
2018-05-15T06:25:38.560Z,7.37
2018-05-15T06:28:07.546Z,8.43
2018-05-15T06:30:36.485Z,8.60
2018-05-15T06:33:05.434Z,8.00
2018-05-15T06:35:34.375Z,7.97
2018-05-15T06:38:03.435Z,8.03
2018-05-15T06:40:32.374Z,9.23
2018-05-15T06:43:01.326Z,9.17
2018-05-15T06:45:30.467Z,9.30
2018-05-15T06:47:59.492Z,8.70
2018-05-15T06:50:28.443Z,8.63
2018-05-15T06:52:57.421Z,8.53
2018-05-15T06:55:26.400Z,9.20
2018-05-15T06:57:55.390Z,9.10
2018-05-15T07:00:24.341Z,8.77
2018-05-15T07:02:53.285Z,9.57
2018-05-15T07:05:22.291Z,9.73
2018-05-15T07:07:51.277Z,8.87
2018-05-15T07:10:20.304Z,9.70
2018-05-15T07:12:49.899Z,9.50
2018-05-15T07:15:18.891Z,10.50
2018-05-15T07:17:47.886Z,10.77
2018-05-15T07:20:16.829Z,7.80
2018-05-15T07:22:45.771Z,6.57
2018-05-15T07:25:14.704Z,9.27
2018-05-15T07:27:43.648Z,8.63
2018-05-15T07:30:12.621Z,9.00
2018-05-15T07:32:41.632Z,8.53
2018-05-15T07:35:10.585Z,8.57
2018-05-15T07:37:39.525Z,8.10
2018-05-15T07:40:08.471Z,7.30
2018-05-15T07:42:37.534Z,6.47
2018-05-15T07:45:06.482Z,6.63
2018-05-15T07:47:35.517Z,7.53
2018-05-15T07:50:04.458Z,7.43
2018-05-15T07:52:33.411Z,7.63
2018-05-15T07:55:02.441Z,7.23
2018-05-15T07:57:31.432Z,7.27
2018-05-15T08:00:00.414Z,6.30
2018-05-15T08:02:29.414Z,6.77
2018-05-15T08:04:58.609Z,6.57
2018-05-15T08:07:28.899Z,6.30
2018-05-15T08:09:58.033Z,6.83
2018-05-15T08:12:26.978Z,6.93
2018-05-15T08:14:56.033Z,6.73
2018-05-15T08:17:24.983Z,6.90
2018-05-15T08:19:53.965Z,6.83
2018-05-15T08:22:22.942Z,6.30
2018-05-15T08:24:51.891Z,6.37
2018-05-15T08:27:21.397Z,6.03
2018-05-15T08:29:50.862Z,6.30
2018-05-15T08:32:19.798Z,5.93
2018-05-15T08:34:49.245Z,5.77
2018-05-15T08:37:18.239Z,5.20
2018-05-15T08:39:47.634Z,5.67
2018-05-15T08:42:16.569Z,5.43
2018-05-15T08:44:45.516Z,5.07
2018-05-15T08:47:15.676Z,4.63
2018-05-15T08:49:44.609Z,4.47
2018-05-15T08:52:13.591Z,4.13
2018-05-15T08:54:42.525Z,3.97
2018-05-15T08:57:11.479Z,4.00
2018-05-15T08:59:40.447Z,4.40
2018-05-15T09:02:09.508Z,4.53
2018-05-15T09:04:38.543Z,4.43
2018-05-15T09:07:07.485Z,4.97
2018-05-15T09:09:36.544Z,4.40
2018-05-15T09:12:05.485Z,4.50
2018-05-15T09:14:34.445Z,5.60
2018-05-15T09:17:03.433Z,4.60
2018-05-15T09:19:32.731Z,4.30
2018-05-15T09:22:01.821Z,4.57
2018-05-15T09:24:30.879Z,4.63
2018-05-15T09:27:00.335Z,4.87
2018-05-15T09:29:29.329Z,4.80
2018-05-15T09:31:58.271Z,5.10
2018-05-15T09:34:27.255Z,4.90
2018-05-15T09:36:56.207Z,5.20
2018-05-15T09:39:25.149Z,5.40
2018-05-15T09:41:54.842Z,5.40
2018-05-15T09:44:23.783Z,6.00
2018-05-15T09:46:52.795Z,5.97
2018-05-15T09:49:21.839Z,4.80
2018-05-15T09:51:51.187Z,5.70
2018-05-15T09:54:20.807Z,5.87
2018-05-15T09:56:49.813Z,5.30
2018-05-15T09:59:18.810Z,5.10
2018-05-15T10:01:47.751Z,5.00
2018-05-15T10:04:16.693Z,5.10
2018-05-15T10:06:45.638Z,4.97
2018-05-15T10:09:14.591Z,4.47
2018-05-15T10:11:43.646Z,4.73
2018-05-15T10:14:12.667Z,4.23
2018-05-15T10:16:41.590Z,5.03
2018-05-15T10:19:10.769Z,4.63
2018-05-15T10:21:40.437Z,5.03
2018-05-15T10:24:10.015Z,4.90
2018-05-15T10:26:39.580Z,4.90
2018-05-15T10:29:09.437Z,4.80
2018-05-15T10:31:39.805Z,3.83
2018-05-15T10:34:08.714Z,3.37
2018-05-15T10:36:37.692Z,3.10
2018-05-15T10:39:06.650Z,4.17
2018-05-15T10:41:35.682Z,4.10
2018-05-15T10:44:05.878Z,4.33
2018-05-15T10:46:34.825Z,4.53
2018-05-15T10:49:03.778Z,4.73
2018-05-15T10:51:32.725Z,4.77
2018-05-15T10:54:01.697Z,5.00
2018-05-15T10:56:30.687Z,5.37
2018-05-15T10:58:59.625Z,6.10
2018-05-15T11:01:28.565Z,4.43
2018-05-15T11:03:57.568Z,4.80
2018-05-15T11:06:26.581Z,4.73
2018-05-15T11:08:55.947Z,5.10
2018-05-15T11:11:25.703Z,4.87
2018-05-15T11:13:54.758Z,4.73
2018-05-15T11:16:23.722Z,4.00
2018-05-15T11:18:52.749Z,4.77
2018-05-15T11:21:27.645Z,3.60
2018-05-15T11:24:02.562Z,4.13
2018-05-15T11:26:31.527Z,4.30
2018-05-15T11:29:00.466Z,4.07
2018-05-15T11:31:30.070Z,3.97
2018-05-15T11:33:59.021Z,4.20
2018-05-15T11:36:28.015Z,3.70
2018-05-15T11:38:57.057Z,4.40
2018-05-15T11:41:26.059Z,4.20
2018-05-15T11:43:54.932Z,4.47
2018-05-15T11:46:24.721Z,4.10
2018-05-15T11:48:54.415Z,4.13
2018-05-15T11:51:24.013Z,4.30
2018-05-15T11:53:52.464Z,3.83
2018-05-15T11:56:21.417Z,4.17
2018-05-15T11:58:50.321Z,4.67
2018-05-15T12:01:19.315Z,4.20
2018-05-15T12:03:48.597Z,4.20
2018-05-15T12:06:17.606Z,5.10
2018-05-15T12:08:46.566Z,5.33
2018-05-15T12:11:15.571Z,5.50
2018-05-15T12:13:45.374Z,4.80
2018-05-15T12:16:14.322Z,5.57
2018-05-15T12:18:43.253Z,5.30
2018-05-15T12:21:12.346Z,5.13
2018-05-15T12:23:41.403Z,4.73
2018-05-15T12:26:10.469Z,5.80
2018-05-15T12:28:39.414Z,5.27
2018-05-15T12:31:08.452Z,6.00
2018-05-15T12:33:37.458Z,6.67
2018-05-15T12:36:06.760Z,7.23
2018-05-15T12:38:35.741Z,6.17
2018-05-15T12:41:04.773Z,7.03
2018-05-15T12:43:33.715Z,8.13
2018-05-15T12:46:02.649Z,8.73
2018-05-15T12:48:31.645Z,7.43
2018-05-15T12:51:00.642Z,6.67
2018-05-15T12:53:29.593Z,7.80
2018-05-15T12:55:58.540Z,7.67
2018-05-15T12:58:27.477Z,10.13
2018-05-15T13:00:56.422Z,9.80
2018-05-15T13:03:25.411Z,9.00
2018-05-15T13:05:54.357Z,9.57
2018-05-15T13:08:23.310Z,10.50
2018-05-15T13:10:52.254Z,9.50
2018-05-15T13:13:21.211Z,11.00
2018-05-15T13:15:50.210Z,11.20
2018-05-15T13:18:19.269Z,11.33
2018-05-15T13:20:48.181Z,11.07
2018-05-15T13:23:17.819Z,11.70
2018-05-15T13:25:46.769Z,10.83
2018-05-15T13:28:16.877Z,10.77
2018-05-15T13:30:45.838Z,10.57
2018-05-15T13:33:14.922Z,10.83
2018-05-15T13:35:43.970Z,11.33
2018-05-15T13:38:12.954Z,9.93
2018-05-15T13:40:41.978Z,10.93
2018-05-15T13:43:11.695Z,10.70
2018-05-15T13:45:40.659Z,11.37
2018-05-15T13:48:09.633Z,12.07
2018-05-15T13:50:38.596Z,12.70
2018-05-15T13:53:07.624Z,12.07
2018-05-15T13:55:36.629Z,12.10
2018-05-15T13:58:05.587Z,12.33
2018-05-15T14:00:34.612Z,11.07
2018-05-15T14:03:03.888Z,9.63
2018-05-15T14:05:33.448Z,9.40
2018-05-15T14:08:02.381Z,8.77
2018-05-15T14:10:31.659Z,8.20
2018-05-15T14:13:00.631Z,9.57
2018-05-15T14:15:29.592Z,9.13
2018-05-15T14:17:58.587Z,8.73
2018-05-15T14:20:27.622Z,9.80
2018-05-15T14:22:56.595Z,8.97
2018-05-15T14:25:25.529Z,7.93
2018-05-15T14:27:55.434Z,6.93
2018-05-15T14:30:24.540Z,8.50
2018-05-15T14:32:53.488Z,8.20
2018-05-15T14:35:22.447Z,8.10
2018-05-15T14:37:51.392Z,8.33
2018-05-15T14:40:20.339Z,8.20
2018-05-15T14:42:55.325Z,7.00
2018-05-15T14:45:24.963Z,7.17
2018-05-15T14:47:54.474Z,7.07
2018-05-15T14:50:24.161Z,6.67
2018-05-15T14:52:53.122Z,5.87
2018-05-15T14:55:22.059Z,6.73
2018-05-15T14:57:51.173Z,6.57
2018-05-15T15:00:20.118Z,6.40
2018-05-15T15:02:49.067Z,6.43
2018-05-15T15:05:18.071Z,6.90
2018-05-15T15:07:47.105Z,6.90
2018-05-15T15:10:16.060Z,7.00
2018-05-15T15:12:45.006Z,6.90
2018-05-15T15:15:13.959Z,7.00
2018-05-15T15:17:42.977Z,6.63
2018-05-15T15:20:11.921Z,6.80
2018-05-15T15:22:40.880Z,6.70
2018-05-15T15:25:09.831Z,6.33
2018-05-15T15:27:38.788Z,6.40
2018-05-15T15:30:07.793Z,6.03
2018-05-15T15:32:37.385Z,6.30
2018-05-15T15:35:06.432Z,5.63
2018-05-15T15:37:35.323Z,5.87
2018-05-15T15:40:04.303Z,6.30
2018-05-15T15:42:33.469Z,5.93
2018-05-15T15:45:03.272Z,6.13
2018-05-15T15:47:32.285Z,5.90
2018-05-15T15:50:01.252Z,5.90
2018-05-15T15:52:30.210Z,5.90
2018-05-15T15:54:59.172Z,5.73
2018-05-15T15:57:28.145Z,6.03
2018-05-15T15:59:57.142Z,5.87
2018-05-15T16:02:26.090Z,6.13
2018-05-15T16:04:55.031Z,5.87
2018-05-15T16:07:23.978Z,6.47
2018-05-15T16:09:53.244Z,5.93
2018-05-15T16:12:22.162Z,6.13
2018-05-15T16:14:51.111Z,6.23
2018-05-15T16:17:20.049Z,6.87
2018-05-15T16:19:49.006Z,6.90
2018-05-15T16:22:18.034Z,7.07
2018-05-15T16:24:47.027Z,7.63
2018-05-15T16:27:16.028Z,6.97
2018-05-15T16:29:45.003Z,7.67
2018-05-15T16:32:13.995Z,7.47
2018-05-15T16:34:42.978Z,6.63
2018-05-15T16:37:12.008Z,6.73
2018-05-15T16:39:40.963Z,8.60
2018-05-15T16:42:09.917Z,9.73
2018-05-15T16:44:38.919Z,10.37
2018-05-15T16:47:07.883Z,12.60
2018-05-15T16:49:36.877Z,13.97
2018-05-15T16:52:06.354Z,13.87
2018-05-15T16:54:35.304Z,17.63
2018-05-15T16:57:04.256Z,17.17
2018-05-15T16:59:33.925Z,15.27
2018-05-15T17:02:02.921Z,13.83
2018-05-15T17:04:32.302Z,15.73
2018-05-15T17:07:01.772Z,17.07
2018-05-15T17:09:30.731Z,17.77
2018-05-15T17:11:59.672Z,17.33
2018-05-15T17:14:28.780Z,15.73
2018-05-15T17:16:57.738Z,15.97
2018-05-15T17:19:26.688Z,14.60
2018-05-15T17:21:55.649Z,17.43
2018-05-15T17:24:25.260Z,17.07
2018-05-15T17:26:54.233Z,15.70
2018-05-15T17:29:23.187Z,16.20
2018-05-15T17:31:52.142Z,16.60
2018-05-15T17:34:21.111Z,16.43
2018-05-15T17:36:50.132Z,17.53
2018-05-15T17:39:19.154Z,16.97
2018-05-15T17:41:48.106Z,18.40
2018-05-15T17:44:17.067Z,17.47
2018-05-15T17:46:47.083Z,18.30
2018-05-15T17:49:16.092Z,18.03
2018-05-15T17:51:45.082Z,18.67
2018-05-15T17:54:14.414Z,18.97
2018-05-15T17:56:43.372Z,16.63
2018-05-15T17:59:12.649Z,17.40
2018-05-15T18:01:41.571Z,18.90
2018-05-15T18:04:10.581Z,19.27
2018-05-15T18:06:40.355Z,19.93
2018-05-15T18:09:09.398Z,23.90
2018-05-15T18:11:38.359Z,23.33
2018-05-15T18:14:07.303Z,27.47
2018-05-15T18:16:36.393Z,25.60
2018-05-15T18:19:05.375Z,20.43
2018-05-15T18:21:34.336Z,20.37
2018-05-15T18:24:03.382Z,23.00
2018-05-15T18:26:32.462Z,18.30
2018-05-15T18:29:02.210Z,20.50
2018-05-15T18:31:31.175Z,20.20
2018-05-15T18:34:00.454Z,19.33
2018-05-15T18:36:29.407Z,20.27
2018-05-15T18:38:58.439Z,19.47
2018-05-15T18:41:27.406Z,19.27
2018-05-15T18:43:56.345Z,20.47
2018-05-15T18:46:25.313Z,17.93
2018-05-15T18:48:54.263Z,19.53
2018-05-15T18:51:23.954Z,21.13
2018-05-15T18:53:52.948Z,23.00
2018-05-15T18:56:21.899Z,22.87
2018-05-15T18:58:50.910Z,22.37
2018-05-15T19:01:19.855Z,23.43
2018-05-15T19:03:48.888Z,34.97
2018-05-15T19:06:17.884Z,34.33
2018-05-15T19:08:46.837Z,24.30
2018-05-15T19:11:19.819Z,31.93
2018-05-15T19:13:48.909Z,21.67
2018-05-15T19:16:17.877Z,25.37
2018-05-15T19:18:46.839Z,26.80
2018-05-15T19:21:15.827Z,22.97
2018-05-15T19:23:44.847Z,24.67
2018-05-15T19:26:13.865Z,25.40
2018-05-15T19:28:42.849Z,22.67
2018-05-15T19:31:15.473Z,25.13
2018-05-15T19:33:55.496Z,28.33
2018-05-15T19:36:30.302Z,23.43
2018-05-15T19:39:05.007Z,23.67
2018-05-15T19:41:34.046Z,26.10
2018-05-15T19:44:03.044Z,26.63
2018-05-15T19:46:32.024Z,26.40
2018-05-15T19:49:01.016Z,25.17
2018-05-15T19:51:30.021Z,26.23
2018-05-15T19:53:59.048Z,29.50
2018-05-15T19:56:28.035Z,24.77
2018-05-15T19:58:57.057Z,29.97
2018-05-15T20:01:26.036Z,32.60
2018-05-15T20:03:55.042Z,28.57
2018-05-15T20:06:24.105Z,26.33
2018-05-15T20:08:53.090Z,25.93
2018-05-15T20:11:22.056Z,29.70
2018-05-15T20:13:51.048Z,32.73
2018-05-15T20:16:20.061Z,31.27
2018-05-15T20:18:49.774Z,30.37
2018-05-15T20:21:18.776Z,29.07
2018-05-15T20:23:47.754Z,35.33
2018-05-15T20:26:16.773Z,30.87
2018-05-15T20:28:45.757Z,29.00
2018-05-15T20:31:14.784Z,35.17
2018-05-15T20:33:43.762Z,31.57
2018-05-15T20:36:12.734Z,32.13
2018-05-15T20:38:41.712Z,27.97
2018-05-15T20:41:10.673Z,26.60
2018-05-15T20:43:39.702Z,31.43
2018-05-15T20:46:08.765Z,31.90
2018-05-15T20:48:38.376Z,34.20
2018-05-15T20:51:07.359Z,38.73
2018-05-15T20:53:36.337Z,36.93
2018-05-15T20:56:05.334Z,33.90
2018-05-15T20:58:35.023Z,38.97
2018-05-15T21:01:04.060Z,37.23
2018-05-15T21:03:33.044Z,30.47
2018-05-15T21:06:02.021Z,32.33
2018-05-15T21:08:31.054Z,36.07
2018-05-15T21:11:00.022Z,36.20
2018-05-15T21:13:28.993Z,32.03
2018-05-15T21:15:58.007Z,32.63
2018-05-15T21:18:26.967Z,30.10
2018-05-15T21:20:55.974Z,30.43
2018-05-15T21:23:24.993Z,26.20
2018-05-15T21:25:54.021Z,26.93
2018-05-15T21:28:22.998Z,27.87
2018-05-15T21:30:51.962Z,27.17
2018-05-15T21:33:20.952Z,28.97
2018-05-15T21:35:49.936Z,28.20
2018-05-15T21:38:18.959Z,28.90
2018-05-15T21:40:47.940Z,29.13
2018-05-15T21:43:16.947Z,30.40
2018-05-15T21:45:45.916Z,31.87
2018-05-15T21:48:14.901Z,29.50
2018-05-15T21:50:43.941Z,29.53
2018-05-15T21:53:12.948Z,29.07
2018-05-15T21:55:41.959Z,29.80
2018-05-15T21:58:10.945Z,30.50
2018-05-15T22:00:39.929Z,30.43
2018-05-15T22:03:08.945Z,34.43
2018-05-15T22:05:37.943Z,30.27
2018-05-15T22:08:06.942Z,30.83
2018-05-15T22:10:35.926Z,31.53
2018-05-15T22:13:10.667Z,31.33
2018-05-15T22:15:45.654Z,34.57
2018-05-15T22:18:20.549Z,33.80
2018-05-15T22:20:55.551Z,32.07
2018-05-15T22:23:24.292Z,29.73
2018-05-15T22:25:53.268Z,28.90
2018-05-15T22:28:22.237Z,30.20
2018-05-15T22:30:51.266Z,29.67
2018-05-15T22:33:20.266Z,31.40
2018-05-15T22:35:49.274Z,30.53
2018-05-15T22:38:18.249Z,29.87
2018-05-15T22:40:47.220Z,29.70
2018-05-15T22:43:16.253Z,30.13
2018-05-15T22:45:45.220Z,27.90
2018-05-15T22:48:14.179Z,28.67
2018-05-15T22:50:43.170Z,28.40
2018-05-15T22:53:12.167Z,28.90
2018-05-15T22:55:41.199Z,31.07
2018-05-15T22:58:10.175Z,29.20
2018-05-15T23:00:39.231Z,31.10
2018-05-15T23:03:08.214Z,31.80
2018-05-15T23:05:37.219Z,34.10
2018-05-15T23:08:06.245Z,34.73
2018-05-15T23:10:35.229Z,35.53
2018-05-15T23:13:04.221Z,34.93
2018-05-15T23:15:33.209Z,32.80
2018-05-15T23:18:02.188Z,31.97
2018-05-15T23:20:31.215Z,32.37
2018-05-15T23:23:00.183Z,33.17
2018-05-15T23:25:30.680Z,34.93
2018-05-15T23:27:59.648Z,32.97
2018-05-15T23:30:28.617Z,34.87
2018-05-15T23:32:57.672Z,36.20
2018-05-15T23:35:26.672Z,36.30
2018-05-15T23:37:55.641Z,38.77
2018-05-15T23:40:24.634Z,37.30
2018-05-15T23:42:53.620Z,37.20
2018-05-15T23:45:22.594Z,36.50
2018-05-15T23:47:51.629Z,38.50
2018-05-15T23:50:20.635Z,39.83
2018-05-15T23:52:49.619Z,37.87
2018-05-15T23:55:18.607Z,36.97
2018-05-15T23:57:47.577Z,36.00
